sensor_id;sensor_type;location;lat;lon;timestamp;temperature;humidity
41294;DHT22;27037;52.010;4.446;2023-06-14T00:00:12;20.60;68.90
41294;DHT22;27037;52.010;4.446;2023-06-14T00:02:41;20.60;69.00
41294;DHT22;27037;52.010;4.446;2023-06-14T00:05:07;20.60;69.40
41294;DHT22;27037;52.010;4.446;2023-06-14T00:07:40;20.50;69.50
41294;DHT22;27037;52.010;4.446;2023-06-14T00:10:10;20.50;69.80
41294;DHT22;27037;52.010;4.446;2023-06-14T00:12:36;20.50;70.00
41294;DHT22;27037;52.010;4.446;2023-06-14T00:15:02;20.50;70.10
41294;DHT22;27037;52.010;4.446;2023-06-14T00:17:28;20.40;70.20
41294;DHT22;27037;52.010;4.446;2023-06-14T00:19:56;20.40;70.40
41294;DHT22;27037;52.010;4.446;2023-06-14T00:22:22;20.40;70.50
41294;DHT22;27037;52.010;4.446;2023-06-14T00:24:50;20.40;70.80
41294;DHT22;27037;52.010;4.446;2023-06-14T00:27:16;20.40;71.30
41294;DHT22;27037;52.010;4.446;2023-06-14T00:29:42;20.30;71.50
41294;DHT22;27037;52.010;4.446;2023-06-14T00:32:07;20.30;71.80
41294;DHT22;27037;52.010;4.446;2023-06-14T00:34:33;20.30;72.20
41294;DHT22;27037;52.010;4.446;2023-06-14T00:36:59;20.20;72.50
41294;DHT22;27037;52.010;4.446;2023-06-14T00:39:25;20.20;72.70
41294;DHT22;27037;52.010;4.446;2023-06-14T00:41:51;20.10;72.80
41294;DHT22;27037;52.010;4.446;2023-06-14T00:44:17;20.10;72.90
41294;DHT22;27037;52.010;4.446;2023-06-14T00:46:44;20.10;73.10
41294;DHT22;27037;52.010;4.446;2023-06-14T00:49:11;20.10;73.40
41294;DHT22;27037;52.010;4.446;2023-06-14T00:51:37;20.10;73.50
41294;DHT22;27037;52.010;4.446;2023-06-14T00:54:04;20.10;73.50
41294;DHT22;27037;52.010;4.446;2023-06-14T00:56:30;20.00;73.50
41294;DHT22;27037;52.010;4.446;2023-06-14T00:58:56;20.00;73.50
41294;DHT22;27037;52.010;4.446;2023-06-14T01:01:23;20.00;73.40
41294;DHT22;27037;52.010;4.446;2023-06-14T01:03:49;20.00;73.30
41294;DHT22;27037;52.010;4.446;2023-06-14T01:06:23;20.00;74.20
41294;DHT22;27037;52.010;4.446;2023-06-14T01:09:18;19.90;73.20
41294;DHT22;27037;52.010;4.446;2023-06-14T01:12:11;19.90;73.20
41294;DHT22;27037;52.010;4.446;2023-06-14T01:14:39;19.90;73.70
41294;DHT22;27037;52.010;4.446;2023-06-14T01:17:08;19.80;73.80
41294;DHT22;27037;52.010;4.446;2023-06-14T01:19:41;19.80;74.00
41294;DHT22;27037;52.010;4.446;2023-06-14T01:22:08;19.80;74.50
41294;DHT22;27037;52.010;4.446;2023-06-14T01:24:34;19.80;74.60
41294;DHT22;27037;52.010;4.446;2023-06-14T01:27:00;19.70;74.80
41294;DHT22;27037;52.010;4.446;2023-06-14T01:29:28;19.70;75.00
41294;DHT22;27037;52.010;4.446;2023-06-14T01:31:59;19.70;75.30
41294;DHT22;27037;52.010;4.446;2023-06-14T01:34:25;19.60;75.60
41294;DHT22;27037;52.010;4.446;2023-06-14T01:36:52;19.60;75.90
41294;DHT22;27037;52.010;4.446;2023-06-14T01:39:20;19.60;75.90
41294;DHT22;27037;52.010;4.446;2023-06-14T01:41:47;19.50;76.20
41294;DHT22;27037;52.010;4.446;2023-06-14T01:44:16;19.40;76.30
41294;DHT22;27037;52.010;4.446;2023-06-14T01:46:42;19.40;76.50
41294;DHT22;27037;52.010;4.446;2023-06-14T01:49:09;19.40;76.30
41294;DHT22;27037;52.010;4.446;2023-06-14T01:51:34;19.30;76.30
41294;DHT22;27037;52.010;4.446;2023-06-14T01:54:00;19.20;76.30
41294;DHT22;27037;52.010;4.446;2023-06-14T01:56:26;19.20;76.20
41294;DHT22;27037;52.010;4.446;2023-06-14T01:58:52;19.10;76.20
41294;DHT22;27037;52.010;4.446;2023-06-14T02:01:19;19.10;77.00
41294;DHT22;27037;52.010;4.446;2023-06-14T02:03:46;19.00;76.00
41294;DHT22;27037;52.010;4.446;2023-06-14T02:06:12;19.00;76.80
41294;DHT22;27037;52.010;4.446;2023-06-14T02:08:38;19.00;75.70
41294;DHT22;27037;52.010;4.446;2023-06-14T02:11:03;19.00;75.40
41294;DHT22;27037;52.010;4.446;2023-06-14T02:13:29;19.00;75.20
41294;DHT22;27037;52.010;4.446;2023-06-14T02:15:54;18.90;74.90
41294;DHT22;27037;52.010;4.446;2023-06-14T02:18:20;18.90;74.90
41294;DHT22;27037;52.010;4.446;2023-06-14T02:20:47;18.90;74.90
41294;DHT22;27037;52.010;4.446;2023-06-14T02:23:12;18.90;74.90
41294;DHT22;27037;52.010;4.446;2023-06-14T02:25:38;18.80;74.80
41294;DHT22;27037;52.010;4.446;2023-06-14T02:28:05;18.80;75.00
41294;DHT22;27037;52.010;4.446;2023-06-14T02:30:31;18.80;75.20
41294;DHT22;27037;52.010;4.446;2023-06-14T02:32:57;18.70;75.10
41294;DHT22;27037;52.010;4.446;2023-06-14T02:35:24;18.70;75.20
41294;DHT22;27037;52.010;4.446;2023-06-14T02:37:52;18.70;75.40
41294;DHT22;27037;52.010;4.446;2023-06-14T02:40:18;18.60;75.50
41294;DHT22;27037;52.010;4.446;2023-06-14T02:42:44;18.60;75.70
41294;DHT22;27037;52.010;4.446;2023-06-14T02:45:09;18.50;75.70
41294;DHT22;27037;52.010;4.446;2023-06-14T02:47:35;18.50;75.90
41294;DHT22;27037;52.010;4.446;2023-06-14T02:50:01;18.50;75.90
41294;DHT22;27037;52.010;4.446;2023-06-14T02:52:28;18.50;75.90
41294;DHT22;27037;52.010;4.446;2023-06-14T02:54:54;18.40;75.80
41294;DHT22;27037;52.010;4.446;2023-06-14T02:57:20;18.40;76.00
41294;DHT22;27037;52.010;4.446;2023-06-14T02:59:46;18.40;76.10
41294;DHT22;27037;52.010;4.446;2023-06-14T03:02:11;18.30;76.20
41294;DHT22;27037;52.010;4.446;2023-06-14T03:04:37;18.30;76.50
41294;DHT22;27037;52.010;4.446;2023-06-14T03:07:03;18.30;76.40
41294;DHT22;27037;52.010;4.446;2023-06-14T03:09:37;18.30;76.50
41294;DHT22;27037;52.010;4.446;2023-06-14T03:12:04;18.30;76.60
41294;DHT22;27037;52.010;4.446;2023-06-14T03:14:31;18.20;76.70
41294;DHT22;27037;52.010;4.446;2023-06-14T03:16:57;18.20;76.90
41294;DHT22;27037;52.010;4.446;2023-06-14T03:19:23;18.20;76.90
41294;DHT22;27037;52.010;4.446;2023-06-14T03:21:49;18.20;77.00
41294;DHT22;27037;52.010;4.446;2023-06-14T03:24:15;18.10;76.90
41294;DHT22;27037;52.010;4.446;2023-06-14T03:26:44;18.10;76.80
41294;DHT22;27037;52.010;4.446;2023-06-14T03:29:09;18.10;77.00
41294;DHT22;27037;52.010;4.446;2023-06-14T03:31:35;18.10;77.10
41294;DHT22;27037;52.010;4.446;2023-06-14T03:34:01;18.00;77.20
41294;DHT22;27037;52.010;4.446;2023-06-14T03:36:27;18.00;77.00
41294;DHT22;27037;52.010;4.446;2023-06-14T03:38:53;18.00;77.20
41294;DHT22;27037;52.010;4.446;2023-06-14T03:41:20;18.00;77.00
41294;DHT22;27037;52.010;4.446;2023-06-14T03:43:46;18.00;77.20
41294;DHT22;27037;52.010;4.446;2023-06-14T03:46:11;18.00;77.30
41294;DHT22;27037;52.010;4.446;2023-06-14T03:48:37;18.00;77.30
41294;DHT22;27037;52.010;4.446;2023-06-14T03:51:04;17.90;77.20
41294;DHT22;27037;52.010;4.446;2023-06-14T03:53:30;17.90;77.40
41294;DHT22;27037;52.010;4.446;2023-06-14T03:55:56;17.90;77.40
41294;DHT22;27037;52.010;4.446;2023-06-14T03:58:22;17.90;77.40
41294;DHT22;27037;52.010;4.446;2023-06-14T04:00:48;17.90;77.50
41294;DHT22;27037;52.010;4.446;2023-06-14T04:03:13;17.90;77.50
41294;DHT22;27037;52.010;4.446;2023-06-14T04:05:41;17.90;77.40
41294;DHT22;27037;52.010;4.446;2023-06-14T04:08:08;17.90;77.40
41294;DHT22;27037;52.010;4.446;2023-06-14T04:10:34;17.80;77.20
41294;DHT22;27037;52.010;4.446;2023-06-14T04:13:00;17.80;77.10
41294;DHT22;27037;52.010;4.446;2023-06-14T04:15:25;17.80;77.20
41294;DHT22;27037;52.010;4.446;2023-06-14T04:17:53;17.90;77.50
41294;DHT22;27037;52.010;4.446;2023-06-14T04:20:22;17.80;77.30
41294;DHT22;27037;52.010;4.446;2023-06-14T04:22:50;17.80;77.40
41294;DHT22;27037;52.010;4.446;2023-06-14T04:25:16;17.80;77.40
41294;DHT22;27037;52.010;4.446;2023-06-14T04:27:42;17.80;77.40
41294;DHT22;27037;52.010;4.446;2023-06-14T04:30:09;17.90;77.50
41294;DHT22;27037;52.010;4.446;2023-06-14T04:32:35;17.90;77.40
41294;DHT22;27037;52.010;4.446;2023-06-14T04:35:06;17.90;77.20
41294;DHT22;27037;52.010;4.446;2023-06-14T04:37:31;17.90;77.10
41294;DHT22;27037;52.010;4.446;2023-06-14T04:39:58;17.90;77.00
41294;DHT22;27037;52.010;4.446;2023-06-14T04:42:24;17.90;76.70
41294;DHT22;27037;52.010;4.446;2023-06-14T04:44:51;18.00;76.80
41294;DHT22;27037;52.010;4.446;2023-06-14T04:47:17;18.00;76.70
41294;DHT22;27037;52.010;4.446;2023-06-14T04:49:43;18.00;76.50
41294;DHT22;27037;52.010;4.446;2023-06-14T04:52:10;18.10;76.20
41294;DHT22;27037;52.010;4.446;2023-06-14T04:54:39;18.10;76.30
41294;DHT22;27037;52.010;4.446;2023-06-14T04:57:07;18.10;76.20
41294;DHT22;27037;52.010;4.446;2023-06-14T04:59:34;18.10;76.00
41294;DHT22;27037;52.010;4.446;2023-06-14T05:02:01;18.10;75.90
41294;DHT22;27037;52.010;4.446;2023-06-14T05:04:26;18.10;76.00
41294;DHT22;27037;52.010;4.446;2023-06-14T05:06:53;18.10;75.80
41294;DHT22;27037;52.010;4.446;2023-06-14T05:09:20;18.20;75.80
41294;DHT22;27037;52.010;4.446;2023-06-14T05:11:46;18.20;75.80
41294;DHT22;27037;52.010;4.446;2023-06-14T05:14:13;18.20;75.70
41294;DHT22;27037;52.010;4.446;2023-06-14T05:16:39;18.20;75.70
41294;DHT22;27037;52.010;4.446;2023-06-14T05:19:05;18.30;75.90
41294;DHT22;27037;52.010;4.446;2023-06-14T05:21:31;18.30;75.90
41294;DHT22;27037;52.010;4.446;2023-06-14T05:23:59;18.30;76.00
41294;DHT22;27037;52.010;4.446;2023-06-14T05:26:24;18.30;76.20
41294;DHT22;27037;52.010;4.446;2023-06-14T05:28:57;18.40;76.30
41294;DHT22;27037;52.010;4.446;2023-06-14T05:31:24;18.40;76.40
41294;DHT22;27037;52.010;4.446;2023-06-14T05:33:50;18.40;76.30
41294;DHT22;27037;52.010;4.446;2023-06-14T05:36:15;18.40;76.20
41294;DHT22;27037;52.010;4.446;2023-06-14T05:38:41;18.40;76.20
41294;DHT22;27037;52.010;4.446;2023-06-14T05:41:07;18.50;76.30
41294;DHT22;27037;52.010;4.446;2023-06-14T05:43:32;18.50;76.20
41294;DHT22;27037;52.010;4.446;2023-06-14T05:45:58;18.50;76.30
41294;DHT22;27037;52.010;4.446;2023-06-14T05:48:24;18.50;76.50
41294;DHT22;27037;52.010;4.446;2023-06-14T05:50:49;18.60;76.70
41294;DHT22;27037;52.010;4.446;2023-06-14T05:53:15;18.60;76.60
41294;DHT22;27037;52.010;4.446;2023-06-14T05:55:40;18.60;76.40
41294;DHT22;27037;52.010;4.446;2023-06-14T05:58:06;18.60;76.10
41294;DHT22;27037;52.010;4.446;2023-06-14T06:00:32;18.70;76.00
41294;DHT22;27037;52.010;4.446;2023-06-14T06:02:58;18.80;76.10
41294;DHT22;27037;52.010;4.446;2023-06-14T06:05:24;18.80;75.90
41294;DHT22;27037;52.010;4.446;2023-06-14T06:07:51;18.80;75.30
41294;DHT22;27037;52.010;4.446;2023-06-14T06:10:17;18.80;74.70
41294;DHT22;27037;52.010;4.446;2023-06-14T06:12:43;18.90;74.60
41294;DHT22;27037;52.010;4.446;2023-06-14T06:15:09;18.90;74.40
41294;DHT22;27037;52.010;4.446;2023-06-14T06:17:38;19.00;74.30
41294;DHT22;27037;52.010;4.446;2023-06-14T06:20:04;19.00;74.00
41294;DHT22;27037;52.010;4.446;2023-06-14T06:22:31;19.10;73.40
41294;DHT22;27037;52.010;4.446;2023-06-14T06:24:57;19.10;73.10
41294;DHT22;27037;52.010;4.446;2023-06-14T06:27:22;19.20;73.10
41294;DHT22;27037;52.010;4.446;2023-06-14T06:29:48;19.30;73.10
41294;DHT22;27037;52.010;4.446;2023-06-14T06:32:15;19.30;72.90
41294;DHT22;27037;52.010;4.446;2023-06-14T06:34:40;19.40;72.70
41294;DHT22;27037;52.010;4.446;2023-06-14T06:37:06;19.50;72.20
41294;DHT22;27037;52.010;4.446;2023-06-14T06:39:33;19.50;72.00
41294;DHT22;27037;52.010;4.446;2023-06-14T06:41:58;19.60;71.80
41294;DHT22;27037;52.010;4.446;2023-06-14T06:44:24;19.70;71.40
41294;DHT22;27037;52.010;4.446;2023-06-14T06:46:49;19.80;71.00
41294;DHT22;27037;52.010;4.446;2023-06-14T06:49:15;19.90;70.70
41294;DHT22;27037;52.010;4.446;2023-06-14T06:51:41;20.00;70.40
41294;DHT22;27037;52.010;4.446;2023-06-14T06:54:08;20.10;69.60
41294;DHT22;27037;52.010;4.446;2023-06-14T06:56:34;20.20;69.40
41294;DHT22;27037;52.010;4.446;2023-06-14T06:59:00;20.30;69.00
41294;DHT22;27037;52.010;4.446;2023-06-14T07:01:26;20.50;68.80
41294;DHT22;27037;52.010;4.446;2023-06-14T07:03:54;20.60;68.60
41294;DHT22;27037;52.010;4.446;2023-06-14T07:06:20;20.70;68.20
41294;DHT22;27037;52.010;4.446;2023-06-14T07:08:46;20.90;67.80
41294;DHT22;27037;52.010;4.446;2023-06-14T07:11:13;21.00;67.20
41294;DHT22;27037;52.010;4.446;2023-06-14T07:13:39;21.10;67.10
41294;DHT22;27037;52.010;4.446;2023-06-14T07:16:05;21.20;66.70
41294;DHT22;27037;52.010;4.446;2023-06-14T07:18:31;21.30;66.30
41294;DHT22;27037;52.010;4.446;2023-06-14T07:20:57;21.50;65.80
41294;DHT22;27037;52.010;4.446;2023-06-14T07:23:23;21.60;65.60
41294;DHT22;27037;52.010;4.446;2023-06-14T07:25:48;21.80;65.30
41294;DHT22;27037;52.010;4.446;2023-06-14T07:28:15;21.90;64.90
41294;DHT22;27037;52.010;4.446;2023-06-14T07:30:41;22.00;64.50
41294;DHT22;27037;52.010;4.446;2023-06-14T07:33:07;22.20;64.20
41294;DHT22;27037;52.010;4.446;2023-06-14T07:35:33;22.40;63.70
41294;DHT22;27037;52.010;4.446;2023-06-14T07:37:59;22.50;63.30
41294;DHT22;27037;52.010;4.446;2023-06-14T07:40:25;22.70;62.70
41294;DHT22;27037;52.010;4.446;2023-06-14T07:42:50;22.80;62.20
41294;DHT22;27037;52.010;4.446;2023-06-14T07:45:16;22.90;61.30
41294;DHT22;27037;52.010;4.446;2023-06-14T07:47:42;23.00;60.90
41294;DHT22;27037;52.010;4.446;2023-06-14T07:50:08;23.10;59.90
41294;DHT22;27037;52.010;4.446;2023-06-14T07:52:34;23.20;59.80
41294;DHT22;27037;52.010;4.446;2023-06-14T07:54:59;23.40;59.50
41294;DHT22;27037;52.010;4.446;2023-06-14T07:57:25;23.60;59.50
41294;DHT22;27037;52.010;4.446;2023-06-14T07:59:51;23.70;58.20
41294;DHT22;27037;52.010;4.446;2023-06-14T08:02:17;23.90;57.80
41294;DHT22;27037;52.010;4.446;2023-06-14T08:04:43;24.00;57.40
41294;DHT22;27037;52.010;4.446;2023-06-14T08:07:09;24.20;57.10
41294;DHT22;27037;52.010;4.446;2023-06-14T08:09:35;24.30;56.60
41294;DHT22;27037;52.010;4.446;2023-06-14T08:12:04;24.40;56.40
41294;DHT22;27037;52.010;4.446;2023-06-14T08:14:33;24.50;56.10
41294;DHT22;27037;52.010;4.446;2023-06-14T08:16:58;24.60;55.60
41294;DHT22;27037;52.010;4.446;2023-06-14T08:19:24;24.70;55.10
41294;DHT22;27037;52.010;4.446;2023-06-14T08:21:50;24.80;55.10
41294;DHT22;27037;52.010;4.446;2023-06-14T08:24:16;24.90;54.90
41294;DHT22;27037;52.010;4.446;2023-06-14T08:26:42;25.00;54.50
41294;DHT22;27037;52.010;4.446;2023-06-14T08:29:07;25.20;54.50
41294;DHT22;27037;52.010;4.446;2023-06-14T08:31:34;25.30;53.90
41294;DHT22;27037;52.010;4.446;2023-06-14T08:33:59;25.30;53.50
41294;DHT22;27037;52.010;4.446;2023-06-14T08:36:25;25.30;53.20
41294;DHT22;27037;52.010;4.446;2023-06-14T08:38:50;25.40;53.10
41294;DHT22;27037;52.010;4.446;2023-06-14T08:41:25;25.50;53.00
41294;DHT22;27037;52.010;4.446;2023-06-14T08:43:52;25.60;52.60
41294;DHT22;27037;52.010;4.446;2023-06-14T08:46:18;25.80;52.70
41294;DHT22;27037;52.010;4.446;2023-06-14T08:48:55;25.90;52.70
41294;DHT22;27037;52.010;4.446;2023-06-14T08:51:25;26.10;52.60
41294;DHT22;27037;52.010;4.446;2023-06-14T08:53:55;26.30;51.90
41294;DHT22;27037;52.010;4.446;2023-06-14T08:56:27;26.30;51.70
41294;DHT22;27037;52.010;4.446;2023-06-14T08:58:53;26.40;51.60
41294;DHT22;27037;52.010;4.446;2023-06-14T09:01:20;26.40;51.30
41294;DHT22;27037;52.010;4.446;2023-06-14T09:03:47;26.50;51.20
41294;DHT22;27037;52.010;4.446;2023-06-14T09:06:14;26.60;51.10
41294;DHT22;27037;52.010;4.446;2023-06-14T09:08:44;26.70;50.70
41294;DHT22;27037;52.010;4.446;2023-06-14T09:11:17;26.80;49.90
41294;DHT22;27037;52.010;4.446;2023-06-14T09:13:47;26.80;49.90
41294;DHT22;27037;52.010;4.446;2023-06-14T09:16:13;26.80;49.90
41294;DHT22;27037;52.010;4.446;2023-06-14T09:18:43;26.90;49.80
41294;DHT22;27037;52.010;4.446;2023-06-14T09:21:10;26.90;49.50
41294;DHT22;27037;52.010;4.446;2023-06-14T09:23:42;27.00;49.40
41294;DHT22;27037;52.010;4.446;2023-06-14T09:26:15;27.10;49.50
41294;DHT22;27037;52.010;4.446;2023-06-14T09:28:48;27.20;49.50
41294;DHT22;27037;52.010;4.446;2023-06-14T09:31:17;27.20;49.60
41294;DHT22;27037;52.010;4.446;2023-06-14T09:33:44;27.30;48.60
41294;DHT22;27037;52.010;4.446;2023-06-14T09:36:25;27.40;47.80
41294;DHT22;27037;52.010;4.446;2023-06-14T09:38:58;27.40;46.90
41294;DHT22;27037;52.010;4.446;2023-06-14T09:43:59;27.50;46.50
41294;DHT22;27037;52.010;4.446;2023-06-14T09:46:27;27.60;47.00
41294;DHT22;27037;52.010;4.446;2023-06-14T09:48:53;27.70;47.20
41294;DHT22;27037;52.010;4.446;2023-06-14T09:51:19;27.70;46.60
41294;DHT22;27037;52.010;4.446;2023-06-14T09:53:47;27.80;46.90
41294;DHT22;27037;52.010;4.446;2023-06-14T09:56:21;27.90;46.70
41294;DHT22;27037;52.010;4.446;2023-06-14T09:58:49;28.00;46.80
41294;DHT22;27037;52.010;4.446;2023-06-14T10:01:16;28.10;46.30
41294;DHT22;27037;52.010;4.446;2023-06-14T10:03:44;28.30;46.30
41294;DHT22;27037;52.010;4.446;2023-06-14T10:06:10;28.30;45.80
41294;DHT22;27037;52.010;4.446;2023-06-14T10:08:37;28.40;45.80
41294;DHT22;27037;52.010;4.446;2023-06-14T10:11:04;28.50;45.50
41294;DHT22;27037;52.010;4.446;2023-06-14T10:13:32;28.60;45.20
41294;DHT22;27037;52.010;4.446;2023-06-14T10:16:12;28.60;45.20
41294;DHT22;27037;52.010;4.446;2023-06-14T10:18:52;28.70;45.30
41294;DHT22;27037;52.010;4.446;2023-06-14T10:23:53;28.80;44.20
41294;DHT22;27037;52.010;4.446;2023-06-14T10:26:23;28.80;44.00
41294;DHT22;27037;52.010;4.446;2023-06-14T10:29:10;28.90;44.20
41294;DHT22;27037;52.010;4.446;2023-06-14T10:31:50;29.00;43.80
41294;DHT22;27037;52.010;4.446;2023-06-14T10:34:23;29.00;43.20
41294;DHT22;27037;52.010;4.446;2023-06-14T10:37:01;28.90;42.70
41294;DHT22;27037;52.010;4.446;2023-06-14T10:39:28;29.00;42.40
41294;DHT22;27037;52.010;4.446;2023-06-14T10:41:55;29.00;42.00
41294;DHT22;27037;52.010;4.446;2023-06-14T10:46:53;29.20;42.20
41294;DHT22;27037;52.010;4.446;2023-06-14T10:49:19;29.30;41.20
41294;DHT22;27037;52.010;4.446;2023-06-14T10:51:49;29.40;40.90
41294;DHT22;27037;52.010;4.446;2023-06-14T10:54:22;29.40;40.80
41294;DHT22;27037;52.010;4.446;2023-06-14T10:56:53;29.40;40.80
41294;DHT22;27037;52.010;4.446;2023-06-14T10:59:20;29.50;41.20
41294;DHT22;27037;52.010;4.446;2023-06-14T11:04:50;29.60;40.90
41294;DHT22;27037;52.010;4.446;2023-06-14T11:10:38;29.70;40.50
41294;DHT22;27037;52.010;4.446;2023-06-14T11:13:04;29.60;40.80
41294;DHT22;27037;52.010;4.446;2023-06-14T11:15:34;29.70;40.60
41294;DHT22;27037;52.010;4.446;2023-06-14T11:18:01;29.70;40.70
41294;DHT22;27037;52.010;4.446;2023-06-14T11:20:29;29.80;40.60
41294;DHT22;27037;52.010;4.446;2023-06-14T11:22:55;29.80;40.60
41294;DHT22;27037;52.010;4.446;2023-06-14T11:25:21;29.90;40.50
41294;DHT22;27037;52.010;4.446;2023-06-14T11:27:49;30.00;40.40
41294;DHT22;27037;52.010;4.446;2023-06-14T11:30:15;30.20;40.70
41294;DHT22;27037;52.010;4.446;2023-06-14T11:32:41;30.20;39.50
41294;DHT22;27037;52.010;4.446;2023-06-14T11:35:08;30.20;39.50
41294;DHT22;27037;52.010;4.446;2023-06-14T11:37:36;30.30;39.20
41294;DHT22;27037;52.010;4.446;2023-06-14T11:40:07;30.40;39.10
41294;DHT22;27037;52.010;4.446;2023-06-14T11:42:35;30.50;38.70
41294;DHT22;27037;52.010;4.446;2023-06-14T11:45:01;30.50;38.80
41294;DHT22;27037;52.010;4.446;2023-06-14T11:47:32;30.60;38.60
41294;DHT22;27037;52.010;4.446;2023-06-14T11:49:59;30.60;38.10
41294;DHT22;27037;52.010;4.446;2023-06-14T11:52:24;30.60;38.20
41294;DHT22;27037;52.010;4.446;2023-06-14T11:54:50;30.50;37.80
41294;DHT22;27037;52.010;4.446;2023-06-14T11:57:18;30.50;38.00
41294;DHT22;27037;52.010;4.446;2023-06-14T11:59:44;30.50;38.00
41294;DHT22;27037;52.010;4.446;2023-06-14T12:02:17;30.40;37.70
41294;DHT22;27037;52.010;4.446;2023-06-14T12:04:44;30.50;37.50
41294;DHT22;27037;52.010;4.446;2023-06-14T12:07:13;30.50;37.10
41294;DHT22;27037;52.010;4.446;2023-06-14T12:12:35;30.80;37.70
41294;DHT22;27037;52.010;4.446;2023-06-14T12:15:03;30.90;37.30
41294;DHT22;27037;52.010;4.446;2023-06-14T12:17:33;30.80;37.30
41294;DHT22;27037;52.010;4.446;2023-06-14T12:20:04;30.80;37.30
41294;DHT22;27037;52.010;4.446;2023-06-14T12:22:32;30.80;37.30
41294;DHT22;27037;52.010;4.446;2023-06-14T12:24:57;30.90;36.80
41294;DHT22;27037;52.010;4.446;2023-06-14T12:27:23;31.00;36.70
41294;DHT22;27037;52.010;4.446;2023-06-14T12:30:01;31.00;36.70
41294;DHT22;27037;52.010;4.446;2023-06-14T12:32:28;31.10;37.10
41294;DHT22;27037;52.010;4.446;2023-06-14T12:34:54;31.10;37.20
41294;DHT22;27037;52.010;4.446;2023-06-14T12:37:20;31.10;37.30
41294;DHT22;27037;52.010;4.446;2023-06-14T12:39:45;31.10;37.40
41294;DHT22;27037;52.010;4.446;2023-06-14T12:42:11;31.10;37.60
41294;DHT22;27037;52.010;4.446;2023-06-14T12:44:38;31.00;37.90
41294;DHT22;27037;52.010;4.446;2023-06-14T12:47:06;31.10;38.00
41294;DHT22;27037;52.010;4.446;2023-06-14T12:49:33;31.20;37.80
41294;DHT22;27037;52.010;4.446;2023-06-14T12:51:58;31.20;37.30
41294;DHT22;27037;52.010;4.446;2023-06-14T12:54:24;31.20;37.10
41294;DHT22;27037;52.010;4.446;2023-06-14T12:56:51;31.30;37.50
41294;DHT22;27037;52.010;4.446;2023-06-14T12:59:17;31.20;37.60
41294;DHT22;27037;52.010;4.446;2023-06-14T13:01:43;31.10;37.70
41294;DHT22;27037;52.010;4.446;2023-06-14T13:04:10;31.10;38.10
41294;DHT22;27037;52.010;4.446;2023-06-14T13:06:36;31.10;37.70
41294;DHT22;27037;52.010;4.446;2023-06-14T13:09:01;30.90;37.30
41294;DHT22;27037;52.010;4.446;2023-06-14T13:11:29;30.70;37.20
41294;DHT22;27037;52.010;4.446;2023-06-14T13:13:55;30.50;37.80
41294;DHT22;27037;52.010;4.446;2023-06-14T13:16:20;30.50;37.80
41294;DHT22;27037;52.010;4.446;2023-06-14T13:18:46;30.50;37.90
41294;DHT22;27037;52.010;4.446;2023-06-14T13:21:11;30.50;37.70
41294;DHT22;27037;52.010;4.446;2023-06-14T13:23:37;30.50;37.80
41294;DHT22;27037;52.010;4.446;2023-06-14T13:26:02;30.50;37.60
41294;DHT22;27037;52.010;4.446;2023-06-14T13:28:28;30.60;37.60
41294;DHT22;27037;52.010;4.446;2023-06-14T13:30:54;30.60;37.30
41294;DHT22;27037;52.010;4.446;2023-06-14T13:33:21;30.60;37.60
41294;DHT22;27037;52.010;4.446;2023-06-14T13:35:46;30.60;37.40
41294;DHT22;27037;52.010;4.446;2023-06-14T13:38:14;30.50;37.40
41294;DHT22;27037;52.010;4.446;2023-06-14T13:40:40;30.50;37.50
41294;DHT22;27037;52.010;4.446;2023-06-14T13:43:06;30.40;37.70
41294;DHT22;27037;52.010;4.446;2023-06-14T13:45:32;30.40;37.60
41294;DHT22;27037;52.010;4.446;2023-06-14T13:47:57;30.40;37.80
41294;DHT22;27037;52.010;4.446;2023-06-14T13:50:23;30.40;37.60
41294;DHT22;27037;52.010;4.446;2023-06-14T13:52:48;30.30;37.50
41294;DHT22;27037;52.010;4.446;2023-06-14T13:55:14;30.40;37.10
41294;DHT22;27037;52.010;4.446;2023-06-14T13:57:40;30.40;37.10
41294;DHT22;27037;52.010;4.446;2023-06-14T14:00:06;30.40;37.30
41294;DHT22;27037;52.010;4.446;2023-06-14T14:02:32;30.50;37.60
41294;DHT22;27037;52.010;4.446;2023-06-14T14:04:57;30.60;37.20
41294;DHT22;27037;52.010;4.446;2023-06-14T14:07:23;30.70;37.10
41294;DHT22;27037;52.010;4.446;2023-06-14T14:09:49;30.70;37.10
41294;DHT22;27037;52.010;4.446;2023-06-14T14:12:14;30.70;37.10
41294;DHT22;27037;52.010;4.446;2023-06-14T14:14:40;30.80;37.20
41294;DHT22;27037;52.010;4.446;2023-06-14T14:17:06;30.80;37.50
41294;DHT22;27037;52.010;4.446;2023-06-14T14:19:32;30.80;38.00
41294;DHT22;27037;52.010;4.446;2023-06-14T14:21:58;30.90;38.10
41294;DHT22;27037;52.010;4.446;2023-06-14T14:24:24;30.90;38.00
41294;DHT22;27037;52.010;4.446;2023-06-14T14:26:50;31.00;38.10
41294;DHT22;27037;52.010;4.446;2023-06-14T14:29:19;31.10;38.00
41294;DHT22;27037;52.010;4.446;2023-06-14T14:31:44;31.10;38.00
41294;DHT22;27037;52.010;4.446;2023-06-14T14:34:10;31.20;38.20
41294;DHT22;27037;52.010;4.446;2023-06-14T14:36:36;31.20;38.10
41294;DHT22;27037;52.010;4.446;2023-06-14T14:39:04;31.10;37.80
41294;DHT22;27037;52.010;4.446;2023-06-14T14:41:29;31.00;38.00
41294;DHT22;27037;52.010;4.446;2023-06-14T14:43:55;31.00;38.60
41294;DHT22;27037;52.010;4.446;2023-06-14T14:46:21;30.90;37.80
41294;DHT22;27037;52.010;4.446;2023-06-14T14:48:47;30.90;37.70
41294;DHT22;27037;52.010;4.446;2023-06-14T14:51:12;30.80;37.60
41294;DHT22;27037;52.010;4.446;2023-06-14T14:53:38;30.80;38.20
41294;DHT22;27037;52.010;4.446;2023-06-14T14:56:04;30.90;37.40
41294;DHT22;27037;52.010;4.446;2023-06-14T14:58:29;30.90;37.90
41294;DHT22;27037;52.010;4.446;2023-06-14T15:00:55;30.90;37.50
41294;DHT22;27037;52.010;4.446;2023-06-14T15:03:21;30.90;37.60
41294;DHT22;27037;52.010;4.446;2023-06-14T15:05:47;30.90;37.90
41294;DHT22;27037;52.010;4.446;2023-06-14T15:08:13;31.00;37.80
41294;DHT22;27037;52.010;4.446;2023-06-14T15:10:42;31.00;37.60
41294;DHT22;27037;52.010;4.446;2023-06-14T15:13:08;30.90;37.80
41294;DHT22;27037;52.010;4.446;2023-06-14T15:15:35;30.80;38.10
41294;DHT22;27037;52.010;4.446;2023-06-14T15:18:01;30.80;38.10
41294;DHT22;27037;52.010;4.446;2023-06-14T15:20:30;30.80;38.10
41294;DHT22;27037;52.010;4.446;2023-06-14T15:22:56;30.90;38.10
41294;DHT22;27037;52.010;4.446;2023-06-14T15:25:28;30.80;37.90
41294;DHT22;27037;52.010;4.446;2023-06-14T15:27:54;30.80;38.30
41294;DHT22;27037;52.010;4.446;2023-06-14T15:30:20;30.80;38.20
41294;DHT22;27037;52.010;4.446;2023-06-14T15:32:52;30.80;38.00
41294;DHT22;27037;52.010;4.446;2023-06-14T15:35:18;30.80;38.30
41294;DHT22;27037;52.010;4.446;2023-06-14T15:37:47;30.90;38.50
41294;DHT22;27037;52.010;4.446;2023-06-14T15:40:13;31.00;38.40
41294;DHT22;27037;52.010;4.446;2023-06-14T15:42:38;31.00;38.40
41294;DHT22;27037;52.010;4.446;2023-06-14T15:45:10;30.80;37.90